Aviation Digital Data Service (ADDS)

Output produced by METARs form (0823 UTC 26 January 2015)
found at http://aviationweather.gov/adds/metars/
 
KHKY 260530Z 2606/2706 21005KT P6SM SCT050 BKN110 
     FM260800 21003KT P6SM SCT010 OVC020 
     TEMPO 2609/2613 VRB03KT 4SM -RA OVC010 
     FM261400 29004KT P6SM BKN025 
     FM261700 30008G15KT P6SM BKN040 
     FM262000 31012G20KT P6SM BKN060 
     FM270000 31010KT P6SM SCT100